createdAt,value
2018-06-30T05:41:39.621Z,22.33
2018-06-30T05:44:08.156Z,22.90
2018-06-30T05:46:36.707Z,19.70
2018-06-30T05:49:05.365Z,23.40
2018-06-30T05:51:33.896Z,20.30
2018-06-30T05:54:02.400Z,23.40
2018-06-30T05:56:30.948Z,22.77
2018-06-30T05:58:59.487Z,21.83
2018-06-30T06:01:28.206Z,25.03
2018-06-30T06:03:56.464Z,20.90
2018-06-30T06:06:25.112Z,21.13
2018-06-30T06:08:53.830Z,21.00
2018-06-30T06:11:22.375Z,20.10
2018-06-30T06:13:50.895Z,22.80
2018-06-30T06:16:19.376Z,16.33
2018-06-30T06:18:47.879Z,13.33
2018-06-30T06:21:16.412Z,19.20
2018-06-30T06:23:44.936Z,18.17
2018-06-30T06:26:13.719Z,13.20
2018-06-30T06:28:42.324Z,16.27
2018-06-30T06:31:10.871Z,15.93
2018-06-30T06:33:39.431Z,16.80
2018-06-30T06:36:08.141Z,15.30
2018-06-30T06:38:36.854Z,14.60
2018-06-30T06:41:05.655Z,15.03
2018-06-30T06:43:34.350Z,13.90
2018-06-30T06:46:02.907Z,16.90
2018-06-30T06:48:31.464Z,18.80
2018-06-30T06:51:00.012Z,15.10
2018-06-30T06:53:28.476Z,14.47
2018-06-30T06:55:57.133Z,17.57
2018-06-30T06:58:25.644Z,14.93
2018-06-30T07:00:54.419Z,16.63
2018-06-30T07:03:22.943Z,15.13
2018-06-30T07:05:51.876Z,13.97
2018-06-30T07:08:21.655Z,16.20
2018-06-30T07:10:51.027Z,13.47
2018-06-30T07:13:19.688Z,16.57
2018-06-30T07:15:49.017Z,17.50
2018-06-30T07:18:18.185Z,13.87
2018-06-30T07:20:47.428Z,16.17
2018-06-30T07:23:16.246Z,16.40
2018-06-30T07:25:45.173Z,15.93
2018-06-30T07:28:14.379Z,14.03
2018-06-30T07:30:43.336Z,13.33
2018-06-30T07:33:12.656Z,13.63
2018-06-30T07:35:41.614Z,18.07
2018-06-30T07:38:10.936Z,17.20
2018-06-30T07:40:39.587Z,13.50
2018-06-30T07:43:08.354Z,15.70
2018-06-30T07:45:36.922Z,13.93
2018-06-30T07:48:06.116Z,16.40
2018-06-30T07:50:34.938Z,15.03
2018-06-30T07:53:03.577Z,14.30
2018-06-30T07:55:32.059Z,15.20
2018-06-30T07:58:00.612Z,16.27
2018-06-30T08:00:29.287Z,12.70
2018-06-30T08:02:57.876Z,12.50
2018-06-30T08:05:26.155Z,13.70
2018-06-30T08:07:54.700Z,14.40
2018-06-30T08:10:23.228Z,12.50
2018-06-30T08:12:51.861Z,12.70
2018-06-30T08:15:20.375Z,14.97
2018-06-30T08:17:49.139Z,15.90
2018-06-30T08:20:17.651Z,16.60
2018-06-30T08:22:46.306Z,12.50
2018-06-30T08:25:15.027Z,13.37
2018-06-30T08:27:43.660Z,13.23
2018-06-30T08:30:12.249Z,13.70
2018-06-30T08:32:40.823Z,11.80
2018-06-30T08:35:09.348Z,10.57
2018-06-30T08:37:37.921Z,11.30
2018-06-30T08:40:06.548Z,10.90
2018-06-30T08:42:35.206Z,10.57
2018-06-30T08:45:03.845Z,11.30
2018-06-30T08:47:32.406Z,11.53
2018-06-30T08:50:00.893Z,9.93
2018-06-30T08:52:29.424Z,12.20
2018-06-30T08:54:57.929Z,9.67
2018-06-30T08:57:26.480Z,10.13
2018-06-30T08:59:55.057Z,9.03
2018-06-30T09:02:23.703Z,9.30
2018-06-30T09:04:52.458Z,10.40
2018-06-30T09:07:21.101Z,8.90
2018-06-30T09:09:49.779Z,8.50
2018-06-30T09:12:18.589Z,8.80
2018-06-30T09:14:47.015Z,8.40
2018-06-30T09:17:15.727Z,7.53
2018-06-30T09:19:44.319Z,8.03
2018-06-30T09:22:12.915Z,7.53
2018-06-30T09:24:41.543Z,8.40
2018-06-30T09:27:10.732Z,8.30
2018-06-30T09:29:39.615Z,7.53
2018-06-30T09:32:08.750Z,7.07
2018-06-30T09:34:37.316Z,7.57
2018-06-30T09:37:06.077Z,6.70
2018-06-30T09:39:34.616Z,6.50
2018-06-30T09:42:03.357Z,7.40
2018-06-30T09:44:32.279Z,6.27
2018-06-30T09:47:00.820Z,7.07
2018-06-30T09:49:29.300Z,7.37
2018-06-30T09:51:57.874Z,7.60
2018-06-30T09:54:26.447Z,6.50
2018-06-30T09:56:55.008Z,6.33
2018-06-30T09:59:23.771Z,5.50
2018-06-30T10:01:52.473Z,6.43
2018-06-30T10:04:21.008Z,6.70
2018-06-30T10:06:49.636Z,5.70
2018-06-30T10:09:18.188Z,6.10
2018-06-30T10:11:46.835Z,6.80
2018-06-30T10:14:15.355Z,6.00
2018-06-30T10:16:44.049Z,6.80
2018-06-30T10:19:12.697Z,5.80
2018-06-30T10:21:41.268Z,4.80
2018-06-30T10:24:10.104Z,5.67
2018-06-30T10:26:39.161Z,5.33
2018-06-30T10:29:07.760Z,5.33
2018-06-30T10:31:36.577Z,5.17
2018-06-30T10:34:05.487Z,5.77
2018-06-30T10:36:33.978Z,5.47
2018-06-30T10:39:02.204Z,5.30
2018-06-30T10:41:31.024Z,4.90
2018-06-30T10:43:59.651Z,4.80
2018-06-30T10:46:28.238Z,4.65
2018-06-30T10:48:56.964Z,4.70
2018-06-30T10:51:25.980Z,5.17
2018-06-30T10:53:54.539Z,4.60
2018-06-30T10:56:23.051Z,4.00
2018-06-30T10:58:51.816Z,4.70
2018-06-30T11:01:20.541Z,4.47
2018-06-30T11:03:49.073Z,4.57
2018-06-30T11:06:17.659Z,4.43
2018-06-30T11:08:46.180Z,4.10
2018-06-30T11:11:14.724Z,4.73
2018-06-30T11:13:43.264Z,3.83
2018-06-30T11:16:11.910Z,4.00
2018-06-30T11:18:40.563Z,3.93
2018-06-30T11:21:09.192Z,4.30
2018-06-30T11:23:37.837Z,4.30
2018-06-30T11:26:06.535Z,3.27
2018-06-30T11:28:35.117Z,3.93
2018-06-30T11:31:03.751Z,4.37
2018-06-30T11:33:32.362Z,3.50
2018-06-30T11:36:00.970Z,4.00
2018-06-30T11:38:29.611Z,3.90
2018-06-30T11:40:58.216Z,4.00
2018-06-30T11:43:26.747Z,4.37
2018-06-30T11:45:55.412Z,3.73
2018-06-30T11:48:23.891Z,3.90
2018-06-30T11:50:52.446Z,4.00
2018-06-30T11:53:21.229Z,3.70
2018-06-30T11:55:49.767Z,3.80
2018-06-30T11:58:18.283Z,3.93
2018-06-30T12:00:47.062Z,3.40
2018-06-30T12:03:15.630Z,3.80
2018-06-30T12:05:44.150Z,3.37
2018-06-30T12:08:12.761Z,3.70
2018-06-30T12:10:41.430Z,3.70
2018-06-30T12:13:09.996Z,3.53
2018-06-30T12:15:38.804Z,3.10
2018-06-30T12:18:07.711Z,3.40
2018-06-30T12:20:36.231Z,3.70
2018-06-30T12:23:04.747Z,3.50
2018-06-30T12:25:33.667Z,3.80
2018-06-30T12:28:01.832Z,3.43
2018-06-30T12:30:30.377Z,3.80
2018-06-30T12:32:59.074Z,3.20
2018-06-30T13:56:56.207Z,3.80
2018-06-30T13:59:24.873Z,4.20
2018-06-30T14:01:53.611Z,3.50
2018-06-30T14:04:22.331Z,3.90
2018-06-30T14:06:51.007Z,4.00
2018-06-30T14:09:19.572Z,3.33
2018-06-30T14:11:48.177Z,3.85
2018-06-30T14:14:16.669Z,3.90
2018-06-30T14:16:45.258Z,3.95
2018-06-30T14:19:13.973Z,3.60
2018-06-30T14:21:42.612Z,3.55
2018-06-30T14:24:11.159Z,3.92
2018-06-30T14:26:39.854Z,3.70
2018-06-30T14:29:08.461Z,3.40
2018-06-30T14:31:37.213Z,4.40
2018-06-30T14:34:05.828Z,3.90
2018-06-30T14:36:34.121Z,3.80
2018-06-30T14:39:02.777Z,3.62
2018-06-30T14:41:31.334Z,3.75
2018-06-30T14:43:59.952Z,3.45
2018-06-30T14:46:28.548Z,3.65
2018-06-30T14:48:57.476Z,3.85
2018-06-30T14:51:26.041Z,3.80
2018-06-30T14:53:54.660Z,3.95
2018-06-30T14:56:23.212Z,3.90
2018-06-30T14:58:51.808Z,3.80
2018-06-30T15:01:20.547Z,3.55
2018-06-30T15:03:49.163Z,4.00
2018-06-30T15:06:17.740Z,3.70
2018-06-30T15:08:46.267Z,4.03
2018-06-30T15:11:14.852Z,4.10
2018-06-30T15:13:43.889Z,4.40
2018-06-30T15:16:12.452Z,3.90
2018-06-30T15:18:41.071Z,4.10
2018-06-30T15:21:09.869Z,4.20
2018-06-30T15:23:38.589Z,3.80
2018-06-30T15:26:07.252Z,3.62
2018-06-30T15:28:36.048Z,3.87
2018-06-30T15:31:04.715Z,4.60
2018-06-30T15:33:33.241Z,4.10
2018-06-30T15:36:02.011Z,4.03
2018-06-30T15:38:30.519Z,4.00
2018-06-30T15:40:59.117Z,3.77
2018-06-30T15:43:27.647Z,4.00
2018-06-30T15:45:56.252Z,4.10
2018-06-30T15:48:24.835Z,4.20
2018-06-30T15:50:53.502Z,4.28
2018-06-30T15:53:22.143Z,3.83
2018-06-30T15:55:50.669Z,4.42
2018-06-30T15:58:19.216Z,3.80
2018-06-30T16:00:48.010Z,4.40
2018-06-30T16:03:16.743Z,4.22
2018-06-30T16:05:45.372Z,3.90
2018-06-30T16:10:41.684Z,3.73
2018-06-30T16:13:10.265Z,3.90
2018-06-30T16:15:38.911Z,4.10
2018-06-30T16:18:07.832Z,3.70
2018-06-30T16:20:36.474Z,4.70
2018-06-30T16:23:05.114Z,3.90
2018-06-30T16:25:33.887Z,4.07
2018-06-30T16:28:02.491Z,3.90
2018-06-30T16:30:31.340Z,4.17
2018-06-30T16:32:59.966Z,3.98
2018-06-30T16:35:28.620Z,3.95
2018-06-30T16:37:56.929Z,4.80
2018-06-30T16:40:25.621Z,3.80
2018-06-30T16:42:54.145Z,4.05
2018-06-30T16:45:22.869Z,3.75
2018-06-30T16:47:51.444Z,4.22
2018-06-30T16:50:20.107Z,4.00
2018-06-30T16:52:48.673Z,4.03
2018-06-30T16:55:17.257Z,4.10
2018-06-30T16:57:45.895Z,4.28
2018-06-30T17:00:14.461Z,4.17
2018-06-30T17:02:43.023Z,3.93
2018-06-30T17:05:11.632Z,3.73
2018-06-30T17:07:40.189Z,3.50
2018-06-30T17:10:08.851Z,4.00
2018-06-30T17:12:37.394Z,4.40
2018-06-30T17:15:06.282Z,4.80
2018-06-30T17:17:34.920Z,4.07
2018-06-30T17:20:03.519Z,3.73
2018-06-30T17:22:32.109Z,4.17
2018-06-30T17:25:00.764Z,3.87
2018-06-30T17:27:29.316Z,3.97
2018-06-30T17:29:57.848Z,3.93
2018-06-30T17:32:26.408Z,4.70
2018-06-30T17:34:55.147Z,4.60
2018-06-30T17:37:24.072Z,4.20
2018-06-30T17:39:52.634Z,3.97
2018-06-30T17:42:21.387Z,4.20
2018-06-30T17:44:49.908Z,4.10
2018-06-30T17:47:18.479Z,3.70
2018-06-30T17:49:47.151Z,4.27
2018-06-30T18:07:05.596Z,5.40
2018-06-30T18:09:35.078Z,3.50
2018-06-30T18:12:03.721Z,4.50
2018-06-30T18:14:32.399Z,4.57
2018-06-30T18:17:01.888Z,4.60
2018-06-30T18:19:31.368Z,5.03
2018-06-30T18:22:00.753Z,4.73
2018-06-30T18:24:29.315Z,4.77
2018-06-30T18:26:58.282Z,4.40
2018-06-30T18:29:26.953Z,5.30
2018-06-30T18:31:56.318Z,4.00
2018-06-30T18:34:24.906Z,4.37
2018-06-30T18:36:54.568Z,4.80
2018-06-30T18:39:23.804Z,4.00
2018-06-30T18:41:53.267Z,4.45
2018-06-30T18:44:21.890Z,3.90
2018-06-30T18:46:50.530Z,4.35
2018-06-30T18:49:19.169Z,4.07
2018-06-30T18:51:47.919Z,4.03
2018-06-30T18:54:16.636Z,4.60
2018-06-30T18:56:45.300Z,4.25
2018-06-30T18:59:13.919Z,4.15
2018-06-30T19:01:42.585Z,4.12
2018-06-30T19:04:11.411Z,3.80
2018-06-30T19:06:40.053Z,4.40
2018-06-30T19:09:10.170Z,3.70
2018-06-30T19:11:39.149Z,3.87
2018-06-30T19:14:08.582Z,5.10
2018-06-30T19:16:37.371Z,5.58
2018-06-30T19:19:06.255Z,4.50
2018-06-30T19:21:34.895Z,4.03
2018-06-30T19:24:03.737Z,3.70
2018-06-30T19:26:32.428Z,3.63
2018-06-30T19:29:01.098Z,3.83
2018-06-30T19:31:29.747Z,3.80
2018-06-30T19:33:58.653Z,4.10
2018-06-30T19:36:27.274Z,3.40
2018-06-30T19:38:56.116Z,3.90
2018-06-30T19:41:25.626Z,3.17
2018-06-30T19:43:54.957Z,3.00
2018-06-30T19:46:24.256Z,3.30
2018-06-30T19:48:53.103Z,2.40
2018-06-30T19:51:21.797Z,2.93
2018-06-30T19:53:50.468Z,2.70
2018-06-30T19:56:19.954Z,3.00
2018-06-30T19:58:48.762Z,2.27
2018-06-30T20:01:17.399Z,2.33
2018-06-30T20:03:46.694Z,2.90
2018-06-30T20:06:15.251Z,1.87
2018-06-30T20:08:44.020Z,1.77
2018-06-30T20:11:12.688Z,2.13
2018-06-30T20:13:41.323Z,1.87
2018-06-30T20:16:09.957Z,1.90
2018-06-30T20:18:39.423Z,2.77
2018-06-30T20:21:09.041Z,2.20
2018-06-30T20:23:37.645Z,1.60
2018-06-30T20:26:06.704Z,1.47
2018-06-30T20:28:35.642Z,2.00
2018-06-30T20:31:04.362Z,1.53
2018-06-30T20:33:33.016Z,1.70
2018-06-30T20:36:01.805Z,1.90
2018-06-30T20:38:30.758Z,1.50
2018-06-30T20:40:59.303Z,1.53
2018-06-30T20:43:27.872Z,1.60
2018-06-30T20:45:56.042Z,1.63
2018-06-30T20:48:24.648Z,1.47
2018-06-30T20:50:53.416Z,1.70
2018-06-30T20:53:22.132Z,2.13
2018-06-30T20:55:50.827Z,1.40
2018-06-30T20:58:19.420Z,1.53
2018-06-30T21:00:48.051Z,1.60
2018-06-30T21:03:16.699Z,1.60
2018-06-30T21:05:45.407Z,1.67
2018-06-30T21:08:14.119Z,1.77
2018-06-30T21:10:42.733Z,1.80
2018-06-30T21:13:11.430Z,1.90
2018-06-30T21:15:40.072Z,1.60
2018-06-30T21:18:08.620Z,2.10
2018-06-30T21:20:37.291Z,1.57
2018-06-30T21:23:06.160Z,1.80
2018-06-30T21:25:34.714Z,1.50
2018-06-30T21:28:03.624Z,1.67
2018-06-30T21:30:32.190Z,1.80
2018-06-30T21:33:00.844Z,1.97
2018-06-30T21:35:29.384Z,1.60
2018-06-30T21:37:57.992Z,1.70
2018-06-30T21:40:26.670Z,2.00
2018-06-30T21:42:55.404Z,1.40
2018-06-30T21:45:24.065Z,1.60
2018-06-30T21:47:52.890Z,1.73
2018-06-30T21:50:21.498Z,1.70
2018-06-30T21:52:50.240Z,1.70
2018-06-30T21:55:18.809Z,1.33
2018-06-30T21:57:47.475Z,1.47
2018-06-30T22:00:18.579Z,1.30
2018-06-30T22:02:47.183Z,2.10
2018-06-30T22:05:15.776Z,2.33
2018-06-30T22:07:44.413Z,2.50
2018-06-30T22:10:13.073Z,2.47
2018-06-30T22:12:41.746Z,2.33
2018-06-30T22:15:09.967Z,1.93
2018-06-30T22:17:38.710Z,1.73
2018-06-30T22:20:07.093Z,1.60
2018-06-30T22:22:35.847Z,1.50
2018-06-30T22:25:04.553Z,1.50
2018-06-30T22:27:32.974Z,1.57
2018-06-30T22:30:01.649Z,1.17
2018-06-30T22:32:30.219Z,1.20
2018-06-30T22:34:58.884Z,1.03
2018-06-30T22:37:27.757Z,0.90
2018-06-30T22:40:07.729Z,1.10
2018-06-30T22:42:36.568Z,0.90
2018-06-30T22:45:05.276Z,1.10
2018-06-30T22:47:33.989Z,1.20
2018-06-30T22:50:02.576Z,1.53
2018-06-30T22:52:31.258Z,1.60
2018-06-30T22:55:00.008Z,1.20
2018-06-30T22:57:28.799Z,1.10
2018-06-30T22:59:57.505Z,1.00
2018-06-30T23:02:26.707Z,1.07
2018-06-30T23:04:55.805Z,1.20
2018-06-30T23:07:24.379Z,0.97
2018-06-30T23:09:54.316Z,0.90
2018-06-30T23:12:23.810Z,1.30
2018-06-30T23:14:52.813Z,1.20
2018-06-30T23:17:22.368Z,1.20
2018-06-30T23:19:51.342Z,1.17
2018-06-30T23:22:34.168Z,1.00
2018-06-30T23:25:03.440Z,1.37
2018-06-30T23:27:32.641Z,1.20
2018-06-30T23:30:01.744Z,0.83
2018-06-30T23:32:31.219Z,1.37
2018-06-30T23:35:00.183Z,1.27
2018-06-30T23:39:58.646Z,1.30
2018-06-30T23:42:28.510Z,1.13
2018-06-30T23:44:57.862Z,1.43
2018-06-30T23:47:28.001Z,1.40
2018-06-30T23:49:57.402Z,1.27
2018-06-30T23:52:26.898Z,1.30
2018-06-30T23:54:55.428Z,1.30
2018-06-30T23:57:24.016Z,1.30
2018-06-30T23:59:52.877Z,1.43
